Time;durP1;ratioP1;P1;durP2;ratioP2;P2;SDS_P1;SDS_P2;PMS_P1;PMS_P2;Temp;Humidity;BMP_temperature;BMP_pressure;BME280_temperature;BME280_humidity;BME280_pressure;Samples;Min_cycle;Max_cycle;Signal;HPM_P1;HPM_P2
2022/02/01 00:01:42;;;;;;;;;;;3.00;64.20;;;;;;5008091;28;20038;-76
2022/02/01 00:04:17;;;;;;;;;;;3.00;63.70;;;;;;4992363;28;20004;-78
2022/02/01 00:07:03;;;;;;;;;;;3.10;64.30;;;;;;4995630;28;20183;-78
2022/02/01 00:14:55;;;;;;;;;;;3.00;64.40;;;;;;5005275;28;19925;-76
2022/02/01 00:36:31;;;;;;;;;;;2.70;66.10;;;;;;4993389;28;20294;-78
2022/02/01 00:41:50;;;;;;;;;;;2.50;66.70;;;;;;5009247;28;19956;-76
2022/02/01 00:44:17;;;;;;;;;;;2.50;66.00;;;;;;5008863;28;19992;-76
2022/02/01 00:46:43;;;;;;;;;;;2.50;66.70;;;;;;4999464;28;20275;-76
2022/02/01 00:49:09;;;;;;;;;;;2.50;66.40;;;;;;4991924;28;19926;-78
2022/02/01 00:51:36;;;;;;;;;;;2.40;66.10;;;;;;4993509;28;19922;-78
2022/02/01 00:54:02;;;;;;;;;;;2.40;66.90;;;;;;4991923;28;19922;-78
2022/02/01 00:56:28;;;;;;;;;;;2.40;66.90;;;;;;4999335;28;19972;-78
2022/02/01 00:58:54;;;;;;;;;;;2.50;66.70;;;;;;4993718;28;19957;-75
2022/02/01 01:01:20;;;;;;;;;;;2.50;66.60;;;;;;5003805;28;19921;-76
2022/02/01 01:03:47;;;;;;;;;;;2.50;65.90;;;;;;4998383;28;19925;-79
2022/02/01 01:06:14;;;;;;;;;;;2.50;66.10;;;;;;4993337;28;20302;-79
2022/02/01 01:08:41;;;;;;;;;;;2.40;66.70;;;;;;4991966;28;20383;-79
2022/02/01 01:11:08;;;;;;;;;;;2.40;67.10;;;;;;4998176;28;20376;-79
2022/02/01 01:53:50;;;;;;;;;;;1.80;69.50;;;;;;4994793;28;19936;-79
2022/02/01 01:56:17;;;;;;;;;;;1.90;69.30;;;;;;4994436;28;19953;-75
2022/02/01 01:58:43;;;;;;;;;;;1.90;68.50;;;;;;4994910;28;19983;-76
2022/02/01 02:03:35;;;;;;;;;;;1.90;68.00;;;;;;4995943;28;20519;-76
2022/02/01 02:06:01;;;;;;;;;;;1.90;68.70;;;;;;4997269;28;19922;-78
2022/02/01 02:08:29;;;;;;;;;;;1.90;68.50;;;;;;4994165;28;19929;-78
2022/02/01 02:16:08;;;;;;;;;;;2.00;68.20;;;;;;4995522;28;19921;-78
2022/02/01 02:18:35;;;;;;;;;;;2.00;68.20;;;;;;4995635;28;20386;-75
2022/02/01 02:21:04;;;;;;;;;;;2.00;68.20;;;;;;4999222;28;19928;-75
2022/02/01 02:23:30;;;;;;;;;;;2.10;68.30;;;;;;4988881;28;19922;-79
2022/02/01 02:25:56;;;;;;;;;;;2.10;67.80;;;;;;4995065;28;19917;-79
2022/02/01 02:28:24;;;;;;;;;;;2.00;67.70;;;;;;4993978;28;20305;-78
2022/02/01 02:30:52;;;;;;;;;;;2.10;68.30;;;;;;4993590;28;20028;-78
2022/02/01 02:33:19;;;;;;;;;;;2.00;68.30;;;;;;4993810;28;20371;-78
2022/02/01 02:35:57;;;;;;;;;;;2.00;68.30;;;;;;5000399;28;20001;-75
2022/02/01 02:47:01;;;;;;;;;;;2.20;68.00;;;;;;4993194;28;19972;-75
2022/02/01 02:49:27;;;;;;;;;;;2.10;68.20;;;;;;4994742;28;20378;-78
2022/02/01 02:51:53;;;;;;;;;;;2.10;68.40;;;;;;4993292;28;19922;-78
2022/02/01 02:54:38;;;;;;;;;;;2.10;67.80;;;;;;5012010;28;19968;-76
2022/02/01 02:57:06;;;;;;;;;;;2.20;68.30;;;;;;5008299;28;19921;-78
2022/02/01 02:59:32;;;;;;;;;;;2.10;68.30;;;;;;4993101;28;19952;-78
2022/02/01 03:01:59;;;;;;;;;;;2.10;68.30;;;;;;4977528;28;20270;-76
2022/02/01 03:04:46;;;;;;;;;;;2.10;68.20;;;;;;4986471;28;19929;-79
2022/02/01 03:07:13;;;;;;;;;;;2.10;68.30;;;;;;5011932;28;19921;-75
2022/02/01 03:09:41;;;;;;;;;;;2.10;68.60;;;;;;5005667;28;19989;-75
2022/02/01 03:12:11;;;;;;;;;;;2.10;68.80;;;;;;5009420;28;19921;-78
2022/02/01 03:19:46;;;;;;;;;;;2.10;68.80;;;;;;4993943;28;19925;-76
2022/02/01 03:20:07;;;;;;;;;;;2.20;68.10;;;;;;5002558;28;19917;-79
2022/02/01 03:22:34;;;;;;;;;;;2.10;68.70;;;;;;4999910;28;20075;-75
2022/02/01 03:25:04;;;;;;;;;;;2.10;68.90;;;;;;4994577;28;20463;-76
2022/02/01 03:27:31;;;;;;;;;;;2.10;68.80;;;;;;4992968;28;20347;-78
2022/02/01 03:29:57;;;;;;;;;;;2.10;68.40;;;;;;4983551;28;19922;-76
2022/02/01 03:32:23;;;;;;;;;;;2.10;68.90;;;;;;5007648;28;19967;-75
2022/02/01 03:34:51;;;;;;;;;;;2.20;68.70;;;;;;5004350;28;19917;-78
2022/02/01 03:37:17;;;;;;;;;;;2.10;68.70;;;;;;5010846;28;19983;-78
2022/02/01 03:39:43;;;;;;;;;;;2.10;68.80;;;;;;5006848;28;19922;-78
2022/02/01 03:42:11;;;;;;;;;;;2.10;68.50;;;;;;4999889;28;19933;-78
2022/02/01 03:44:37;;;;;;;;;;;2.10;69.00;;;;;;4992552;28;19921;-76
2022/02/01 03:47:03;;;;;;;;;;;2.10;69.20;;;;;;5005661;28;19963;-78
2022/02/01 03:49:48;;;;;;;;;;;2.10;68.50;;;;;;4982294;28;20020;-79
2022/02/01 03:52:14;;;;;;;;;;;2.10;69.00;;;;;;4993205;28;19917;-75
2022/02/01 03:54:41;;;;;;;;;;;2.20;69.00;;;;;;4992492;28;19960;-75
2022/02/01 03:57:08;;;;;;;;;;;2.20;68.80;;;;;;4992371;28;19930;-78
2022/02/01 03:59:35;;;;;;;;;;;2.20;68.90;;;;;;5005913;28;20004;-75
2022/02/01 04:02:03;;;;;;;;;;;2.30;68.80;;;;;;4996726;28;19913;-79
2022/02/01 04:04:31;;;;;;;;;;;2.30;68.90;;;;;;5002623;28;20364;-79
2022/02/01 04:06:57;;;;;;;;;;;2.20;68.70;;;;;;5006248;28;19921;-79
2022/02/01 04:09:24;;;;;;;;;;;2.30;69.00;;;;;;4994369;28;19967;-75
2022/02/01 04:11:51;;;;;;;;;;;2.30;68.40;;;;;;4994296;28;20013;-82
2022/02/01 04:14:21;;;;;;;;;;;2.20;69.00;;;;;;4988467;28;20004;-78
2022/02/01 04:16:47;;;;;;;;;;;2.20;68.60;;;;;;4994571;28;20302;-76
2022/02/01 04:19:13;;;;;;;;;;;2.20;69.30;;;;;;5002678;28;19957;-77
2022/02/01 04:21:46;;;;;;;;;;;2.20;69.30;;;;;;5014677;28;19928;-76
2022/02/01 04:24:12;;;;;;;;;;;2.30;69.10;;;;;;5007930;28;19987;-76
2022/02/01 04:26:38;;;;;;;;;;;2.20;69.20;;;;;;4994685;28;19956;-78
2022/02/01 04:29:04;;;;;;;;;;;2.30;69.20;;;;;;4993688;28;20362;-75
2022/02/01 04:31:30;;;;;;;;;;;2.30;69.30;;;;;;4990779;28;19964;-75
2022/02/01 04:33:56;;;;;;;;;;;2.30;69.30;;;;;;5006302;28;19922;-76
2022/02/01 04:36:22;;;;;;;;;;;2.30;69.20;;;;;;5008196;28;20388;-78
2022/02/01 04:38:56;;;;;;;;;;;2.20;68.50;;;;;;4994606;28;19921;-75
2022/02/01 04:41:25;;;;;;;;;;;2.30;69.30;;;;;;5003842;28;19929;-75
2022/02/01 04:43:51;;;;;;;;;;;2.20;69.20;;;;;;4992041;28;19921;-75
2022/02/01 04:46:18;;;;;;;;;;;2.30;68.90;;;;;;5008924;28;19932;-75
2022/02/01 04:48:44;;;;;;;;;;;2.20;68.60;;;;;;4992161;28;19921;-78
2022/02/01 04:51:10;;;;;;;;;;;2.30;68.70;;;;;;5005731;28;19917;-76
2022/02/01 04:53:36;;;;;;;;;;;2.30;69.30;;;;;;4996294;28;20351;-75
2022/02/01 04:56:03;;;;;;;;;;;2.30;69.10;;;;;;4991647;28;19922;-78
2022/02/01 04:58:29;;;;;;;;;;;2.30;68.40;;;;;;4997288;28;19922;-78
2022/02/01 05:00:55;;;;;;;;;;;2.30;69.00;;;;;;4995294;28;19984;-78
2022/02/01 05:03:21;;;;;;;;;;;2.30;68.50;;;;;;5009309;28;20387;-76
2022/02/01 05:05:47;;;;;;;;;;;2.30;69.20;;;;;;4996313;28;19960;-76
2022/02/01 05:08:13;;;;;;;;;;;2.30;69.30;;;;;;5010612;28;19936;-78
2022/02/01 05:10:39;;;;;;;;;;;2.20;69.30;;;;;;4995579;28;19976;-78
2022/02/01 05:15:52;;;;;;;;;;;2.20;69.10;;;;;;5008760;28;19921;-78
2022/02/01 05:18:25;;;;;;;;;;;2.20;69.20;;;;;;4994420;28;20413;-76
2022/02/01 05:23:37;;;;;;;;;;;2.30;69.00;;;;;;5000019;28;20164;-75
2022/02/01 05:26:04;;;;;;;;;;;2.30;68.50;;;;;;5009146;28;20395;-78
2022/02/01 05:28:31;;;;;;;;;;;2.30;68.90;;;;;;4979112;28;19964;-76
2022/02/01 05:31:02;;;;;;;;;;;2.20;69.00;;;;;;5001842;28;19922;-78
2022/02/01 05:33:48;;;;;;;;;;;2.20;69.00;;;;;;5008152;28;19992;-78
2022/02/01 05:36:14;;;;;;;;;;;2.10;69.30;;;;;;4995233;28;19989;-78
2022/02/01 05:38:40;;;;;;;;;;;2.20;69.50;;;;;;4979218;28;20357;-78
2022/02/01 05:41:08;;;;;;;;;;;2.20;69.30;;;;;;4995281;28;19922;-75
2022/02/01 05:43:36;;;;;;;;;;;2.20;68.50;;;;;;4994987;28;20291;-76
2022/02/01 05:46:02;;;;;;;;;;;2.20;69.10;;;;;;5017684;28;19964;-78
2022/02/01 05:48:28;;;;;;;;;;;2.10;69.20;;;;;;5004403;28;19929;-78
2022/02/01 05:50:55;;;;;;;;;;;2.10;69.30;;;;;;4996562;28;19914;-79
2022/02/01 05:53:22;;;;;;;;;;;2.00;69.30;;;;;;4994785;28;19944;-78
2022/02/01 05:55:48;;;;;;;;;;;1.90;69.80;;;;;;4999277;28;19948;-78
2022/02/01 05:58:15;;;;;;;;;;;1.90;69.80;;;;;;5001493;28;19921;-75
2022/02/01 06:00:42;;;;;;;;;;;1.90;69.60;;;;;;5003860;28;19922;-76
2022/02/01 06:03:08;;;;;;;;;;;1.90;69.10;;;;;;4994616;28;19917;-78
2022/02/01 06:05:34;;;;;;;;;;;1.90;69.00;;;;;;4977759;28;20000;-75
2022/02/01 06:08:01;;;;;;;;;;;1.90;69.80;;;;;;4995922;28;19922;-76
2022/02/01 06:10:27;;;;;;;;;;;1.90;69.30;;;;;;4994686;28;19957;-75
2022/02/01 06:12:53;;;;;;;;;;;1.90;69.30;;;;;;4994198;28;20518;-78
2022/02/01 06:15:23;;;;;;;;;;;1.90;69.00;;;;;;4983175;28;19913;-78
2022/02/01 06:17:49;;;;;;;;;;;1.90;68.80;;;;;;5003123;28;19963;-78
2022/02/01 06:20:15;;;;;;;;;;;2.00;68.90;;;;;;4985962;28;19926;-75
2022/02/01 06:22:41;;;;;;;;;;;2.00;68.80;;;;;;4994046;28;19964;-75
2022/02/01 06:25:08;;;;;;;;;;;2.00;68.50;;;;;;5000043;28;19921;-78
2022/02/01 06:27:35;;;;;;;;;;;2.10;68.40;;;;;;5002923;28;19933;-75
2022/02/01 06:30:01;;;;;;;;;;;2.20;68.10;;;;;;5010711;28;20009;-78
2022/02/01 06:32:50;;;;;;;;;;;2.20;68.00;;;;;;5003870;28;19926;-78
2022/02/01 06:35:16;;;;;;;;;;;2.20;68.00;;;;;;5007934;28;19922;-76
2022/02/01 06:37:42;;;;;;;;;;;2.20;68.20;;;;;;4998930;28;20354;-78
2022/02/01 06:40:08;;;;;;;;;;;2.20;68.10;;;;;;4994189;28;19996;-77
2022/02/01 06:42:34;;;;;;;;;;;2.20;68.10;;;;;;4993678;28;19941;-76
2022/02/01 06:45:02;;;;;;;;;;;2.20;68.30;;;;;;4978241;28;19940;-76
2022/02/01 06:47:28;;;;;;;;;;;2.20;68.10;;;;;;5010446;28;19922;-75
2022/02/01 06:49:54;;;;;;;;;;;2.20;68.20;;;;;;5005263;28;19928;-78
2022/02/01 06:52:20;;;;;;;;;;;2.30;68.30;;;;;;4998482;28;19984;-75
2022/02/01 06:54:46;;;;;;;;;;;2.20;68.20;;;;;;4995264;28;19926;-78
2022/02/01 06:57:12;;;;;;;;;;;2.20;68.20;;;;;;4977112;28;19917;-78
2022/02/01 06:59:38;;;;;;;;;;;2.30;68.20;;;;;;4994085;28;19967;-78
2022/02/01 07:02:05;;;;;;;;;;;2.30;67.90;;;;;;4993411;28;19925;-75
2022/02/01 07:04:31;;;;;;;;;;;2.30;67.90;;;;;;5007141;28;19922;-78
2022/02/01 07:06:57;;;;;;;;;;;2.30;68.10;;;;;;4999382;28;20325;-76
2022/02/01 07:09:23;;;;;;;;;;;2.30;68.10;;;;;;4993453;28;19929;-76
2022/02/01 07:11:49;;;;;;;;;;;2.30;68.00;;;;;;4995119;28;20366;-75
2022/02/01 07:14:15;;;;;;;;;;;2.40;67.20;;;;;;4982726;28;19968;-76
2022/02/01 07:16:41;;;;;;;;;;;2.50;67.80;;;;;;5004066;28;20004;-76
2022/02/01 07:19:07;;;;;;;;;;;2.40;67.60;;;;;;4999285;28;19921;-78
2022/02/01 07:21:33;;;;;;;;;;;2.40;67.60;;;;;;4993065;28;19930;-78
2022/02/01 07:24:00;;;;;;;;;;;2.50;67.70;;;;;;4993704;28;19917;-78
2022/02/01 07:26:26;;;;;;;;;;;2.50;67.60;;;;;;4977058;28;19922;-78
2022/02/01 07:28:52;;;;;;;;;;;2.40;67.50;;;;;;5002904;28;19929;-76
2022/02/01 07:31:18;;;;;;;;;;;2.40;68.00;;;;;;4997653;28;20379;-76
2022/02/01 07:33:45;;;;;;;;;;;2.40;67.90;;;;;;5005882;28;19921;-78
2022/02/01 07:36:16;;;;;;;;;;;2.40;67.00;;;;;;4997478;28;20097;-75
2022/02/01 07:38:42;;;;;;;;;;;2.50;67.60;;;;;;4993369;28;19917;-76
2022/02/01 07:41:08;;;;;;;;;;;2.40;66.80;;;;;;4992893;28;20294;-78
2022/02/01 07:43:34;;;;;;;;;;;2.50;67.50;;;;;;4994114;28;20005;-75
2022/02/01 07:46:06;;;;;;;;;;;2.50;67.40;;;;;;4993183;28;19921;-78
2022/02/01 07:48:32;;;;;;;;;;;2.50;67.20;;;;;;4992937;28;20375;-78
2022/02/01 07:50:58;;;;;;;;;;;2.50;67.30;;;;;;4994706;28;19925;-78
2022/02/01 07:53:24;;;;;;;;;;;2.60;66.70;;;;;;5005922;28;19921;-78
2022/02/01 07:55:50;;;;;;;;;;;2.60;67.30;;;;;;4996712;28;20008;-76
2022/02/01 07:58:16;;;;;;;;;;;2.70;67.20;;;;;;4992626;28;19922;-75
2022/02/01 08:00:42;;;;;;;;;;;2.70;67.30;;;;;;4976373;28;19976;-79
2022/02/01 08:03:11;;;;;;;;;;;2.70;67.50;;;;;;4992542;28;19928;-76
2022/02/01 08:05:37;;;;;;;;;;;2.60;67.60;;;;;;5007655;28;19918;-78
2022/02/01 08:08:03;;;;;;;;;;;2.50;68.90;;;;;;4996517;28;20004;-79
2022/02/01 08:10:39;;;;;;;;;;;2.50;70.00;;;;;;4999111;28;19926;-79
2022/02/01 08:20:57;;;;;;;;;;;2.30;72.20;;;;;;5010695;28;20289;-79
2022/02/01 08:23:23;;;;;;;;;;;2.40;71.70;;;;;;4993656;28;19929;-79
2022/02/01 08:26:08;;;;;;;;;;;2.40;72.70;;;;;;4993598;28;19921;-75
2022/02/01 08:28:34;;;;;;;;;;;2.40;73.30;;;;;;4994737;28;19925;-75
2022/02/01 08:31:00;;;;;;;;;;;2.40;73.10;;;;;;5000891;28;19921;-80
2022/02/01 08:33:26;;;;;;;;;;;2.40;72.60;;;;;;4995964;28;19964;-76
2022/02/01 08:35:52;;;;;;;;;;;2.40;72.60;;;;;;5010969;28;19917;-75
2022/02/01 08:38:18;;;;;;;;;;;2.50;72.60;;;;;;4995916;28;19928;-75
2022/02/01 08:40:46;;;;;;;;;;;2.50;72.50;;;;;;4980037;28;19922;-75
2022/02/01 08:43:13;;;;;;;;;;;2.60;72.30;;;;;;4996059;28;19926;-75
2022/02/01 08:45:40;;;;;;;;;;;2.60;71.90;;;;;;4999159;28;19927;-75
2022/02/01 08:48:06;;;;;;;;;;;2.70;71.90;;;;;;4993744;28;20389;-75
2022/02/01 08:50:35;;;;;;;;;;;2.70;71.10;;;;;;4996616;28;20367;-75
2022/02/01 08:53:26;;;;;;;;;;;2.80;71.50;;;;;;4997221;28;19921;-78
2022/02/01 08:58:23;;;;;;;;;;;3.00;70.90;;;;;;4995768;28;19967;-78
2022/02/01 09:00:50;;;;;;;;;;;3.10;71.00;;;;;;4987224;28;20413;-78
2022/02/01 09:03:16;;;;;;;;;;;3.10;71.10;;;;;;5014258;28;20027;-75
2022/02/01 09:06:02;;;;;;;;;;;3.10;71.10;;;;;;4989648;28;20421;-77
2022/02/01 09:08:30;;;;;;;;;;;3.10;71.10;;;;;;4986213;28;20012;-75
2022/02/01 09:10:57;;;;;;;;;;;3.20;71.30;;;;;;4995599;28;19922;-78
2022/02/01 09:13:23;;;;;;;;;;;3.20;71.40;;;;;;5002333;28;20926;-75
2022/02/01 09:15:49;;;;;;;;;;;3.30;71.30;;;;;;4994458;28;19928;-78
2022/02/01 09:18:15;;;;;;;;;;;3.30;71.10;;;;;;4995601;28;19928;-75
2022/02/01 09:20:41;;;;;;;;;;;3.40;71.00;;;;;;4997153;28;20016;-75
2022/02/01 09:23:07;;;;;;;;;;;3.50;70.30;;;;;;5013968;28;19922;-77
2022/02/01 09:25:33;;;;;;;;;;;3.60;70.10;;;;;;5011098;28;19921;-74
2022/02/01 09:28:00;;;;;;;;;;;3.70;70.60;;;;;;5009168;28;19976;-78
2022/02/01 09:30:26;;;;;;;;;;;3.70;69.80;;;;;;5004183;28;19968;-78
2022/02/01 09:32:53;;;;;;;;;;;3.80;70.10;;;;;;5002252;28;19925;-74
2022/02/01 09:35:19;;;;;;;;;;;3.90;70.20;;;;;;4995218;28;19928;-77
2022/02/01 09:37:45;;;;;;;;;;;4.00;70.10;;;;;;4995220;28;19922;-74
2022/02/01 09:40:11;;;;;;;;;;;4.10;69.80;;;;;;5009799;28;20263;-78
2022/02/01 09:42:38;;;;;;;;;;;4.10;69.80;;;;;;5005340;28;19971;-74
2022/02/01 09:45:05;;;;;;;;;;;4.20;69.70;;;;;;5001395;28;19921;-74
2022/02/01 09:47:49;;;;;;;;;;;4.20;69.70;;;;;;5007467;28;19941;-74
2022/02/01 09:50:17;;;;;;;;;;;4.30;69.80;;;;;;4998981;28;19922;-78
2022/02/01 09:52:43;;;;;;;;;;;4.20;69.80;;;;;;4994697;28;19928;-78
2022/02/01 09:55:13;;;;;;;;;;;4.20;69.40;;;;;;5004742;28;19965;-75
2022/02/01 09:57:43;;;;;;;;;;;4.20;69.80;;;;;;4981970;28;19961;-76
2022/02/01 10:00:15;;;;;;;;;;;4.20;69.80;;;;;;4994758;28;19965;-75
2022/02/01 10:02:42;;;;;;;;;;;4.20;69.70;;;;;;5003776;28;19921;-77
2022/02/01 10:05:11;;;;;;;;;;;4.20;69.40;;;;;;4996435;28;20652;-78
2022/02/01 10:07:56;;;;;;;;;;;4.20;69.50;;;;;;4994464;28;20012;-75
2022/02/01 10:10:25;;;;;;;;;;;4.20;69.40;;;;;;5027582;28;19922;-78
2022/02/01 10:13:17;;;;;;;;;;;4.30;69.40;;;;;;4991763;28;19928;-75
2022/02/01 10:16:09;;;;;;;;;;;4.40;69.20;;;;;;5008549;28;19929;-75
2022/02/01 10:18:35;;;;;;;;;;;4.40;68.90;;;;;;4993986;28;19933;-74
2022/02/01 10:21:20;;;;;;;;;;;4.50;68.90;;;;;;4995065;28;20417;-75
2022/02/01 10:23:46;;;;;;;;;;;4.50;68.90;;;;;;5016610;28;19925;-75
2022/02/01 10:29:22;;;;;;;;;;;4.50;68.80;;;;;;5015068;28;19968;-75
2022/02/01 10:31:54;;;;;;;;;;;4.50;68.70;;;;;;5013748;28;19921;-78
2022/02/01 10:34:42;;;;;;;;;;;4.60;68.40;;;;;;5028971;28;19921;-75
2022/02/01 10:37:26;;;;;;;;;;;4.70;68.30;;;;;;5013485;28;19971;-79
2022/02/01 10:40:11;;;;;;;;;;;4.90;67.90;;;;;;5013051;28;19960;-79
2022/02/01 10:42:37;;;;;;;;;;;5.30;67.30;;;;;;5016490;28;19921;-75
2022/02/01 10:45:04;;;;;;;;;;;5.60;66.60;;;;;;5029422;28;19945;-78
2022/02/01 10:47:54;;;;;;;;;;;5.90;65.20;;;;;;5028870;28;20350;-75
2022/02/01 10:50:23;;;;;;;;;;;6.20;64.90;;;;;;5026113;28;19925;-79
2022/02/01 10:52:50;;;;;;;;;;;6.50;63.70;;;;;;5028793;28;20513;-76
2022/02/01 10:55:18;;;;;;;;;;;6.50;64.40;;;;;;4997291;28;19921;-79
2022/02/01 10:57:45;;;;;;;;;;;6.80;63.80;;;;;;5028583;28;19921;-76
2022/02/01 11:00:14;;;;;;;;;;;7.10;63.10;;;;;;5027445;28;19924;-76
2022/02/01 11:02:44;;;;;;;;;;;8.00;60.90;;;;;;5025579;28;20373;-76
2022/02/01 11:05:13;;;;;;;;;;;8.40;59.80;;;;;;4999923;28;20012;-80
2022/02/01 11:07:40;;;;;;;;;;;8.50;59.70;;;;;;5013131;28;20373;-76
2022/02/01 11:10:25;;;;;;;;;;;8.70;59.30;;;;;;5019502;28;19964;-80
2022/02/01 11:12:51;;;;;;;;;;;9.80;57.70;;;;;;5019944;28;20011;-80
2022/02/01 11:15:23;;;;;;;;;;;12.20;52.50;;;;;;5024865;28;20294;-76
2022/02/01 11:17:51;;;;;;;;;;;12.80;49.20;;;;;;5002256;28;19921;-76
2022/02/01 11:20:36;;;;;;;;;;;12.30;50.10;;;;;;5029055;28;19922;-80
2022/02/01 11:23:23;;;;;;;;;;;11.40;52.40;;;;;;5026627;28;19959;-80
2022/02/01 11:25:55;;;;;;;;;;;11.20;54.40;;;;;;5031309;28;19921;-75
2022/02/01 11:31:14;;;;;;;;;;;12.90;50.60;;;;;;5013498;28;19928;-80
2022/02/01 11:33:43;;;;;;;;;;;13.90;48.60;;;;;;4996583;28;20320;-80
2022/02/01 11:36:11;;;;;;;;;;;15.80;44.30;;;;;;5027642;28;20016;-79
2022/02/01 11:39:08;;;;;;;;;;;16.60;40.60;;;;;;4996289;28;20083;-79
2022/02/01 11:41:36;;;;;;;;;;;16.20;41.30;;;;;;5013980;28;20011;-75
2022/02/01 11:44:21;;;;;;;;;;;15.30;42.70;;;;;;4994835;28;20004;-75
2022/02/01 11:47:36;;;;;;;;;;;14.70;44.60;;;;;;5021681;28;19921;-75
2022/02/01 11:50:30;;;;;;;;;;;13.70;46.50;;;;;;5029452;28;19928;-80
2022/02/01 11:52:57;;;;;;;;;;;13.60;46.90;;;;;;5011551;28;20267;-75
2022/02/01 11:55:29;;;;;;;;;;;13.00;48.30;;;;;;5019142;28;19924;-75
2022/02/01 11:58:01;;;;;;;;;;;12.90;49.20;;;;;;5011807;28;20003;-75
2022/02/01 12:00:27;;;;;;;;;;;13.10;48.10;;;;;;5012313;28;20011;-76
2022/02/01 12:03:16;;;;;;;;;;;13.10;47.80;;;;;;4994705;28;20277;-76
2022/02/01 12:05:53;;;;;;;;;;;12.70;49.00;;;;;;5015470;28;19921;-76
2022/02/01 12:08:20;;;;;;;;;;;12.50;49.20;;;;;;5028399;28;19968;-80
2022/02/01 12:10:47;;;;;;;;;;;12.30;48.70;;;;;;5007159;28;20471;-76
2022/02/01 12:13:15;;;;;;;;;;;12.10;49.00;;;;;;5013135;28;20020;-76
2022/02/01 12:15:43;;;;;;;;;;;12.50;48.00;;;;;;5012098;28;19980;-76
2022/02/01 12:18:39;;;;;;;;;;;13.00;46.80;;;;;;5012055;28;19922;-80
2022/02/01 12:21:06;;;;;;;;;;;13.00;46.50;;;;;;5021584;28;19956;-76
2022/02/01 12:23:33;;;;;;;;;;;13.20;46.40;;;;;;5019422;28;19921;-75
2022/02/01 12:25:59;;;;;;;;;;;13.50;45.00;;;;;;5012010;28;19952;-80
2022/02/01 12:28:44;;;;;;;;;;;13.20;45.40;;;;;;5011801;28;19929;-80
2022/02/01 12:31:12;;;;;;;;;;;13.00;46.20;;;;;;5008664;28;19964;-75
2022/02/01 12:33:46;;;;;;;;;;;13.20;46.10;;;;;;5009263;28;19921;-80
2022/02/01 12:36:15;;;;;;;;;;;13.70;45.30;;;;;;5026336;28;20408;-76
2022/02/01 12:38:43;;;;;;;;;;;13.80;45.30;;;;;;5014779;28;19964;-76
2022/02/01 12:41:15;;;;;;;;;;;14.00;45.30;;;;;;5012677;28;20028;-76
2022/02/01 12:49:11;;;;;;;;;;;14.50;44.50;;;;;;5011630;28;20374;-76
2022/02/01 12:51:42;;;;;;;;;;;14.60;44.30;;;;;;4999297;28;19921;-76
2022/02/01 12:54:20;;;;;;;;;;;15.10;42.90;;;;;;5011437;28;19917;-80
2022/02/01 12:56:46;;;;;;;;;;;16.80;40.10;;;;;;5013540;28;20334;-75
2022/02/01 12:59:12;;;;;;;;;;;19.20;33.90;;;;;;4995267;28;20267;-80
2022/02/01 13:01:39;;;;;;;;;;;20.70;32.20;;;;;;5011770;28;19929;-80
2022/02/01 13:04:07;;;;;;;;;;;21.40;31.80;;;;;;4997216;28;19928;-80
2022/02/01 13:06:38;;;;;;;;;;;21.50;30.60;;;;;;5028483;28;19975;-76
2022/02/01 13:14:55;;;;;;;;;;;25.90;25.90;;;;;;5014022;28;19929;-77
2022/02/01 13:17:45;;;;;;;;;;;26.30;24.80;;;;;;5028444;28;20400;-77
2022/02/01 13:20:30;;;;;;;;;;;26.40;24.70;;;;;;5030629;28;20105;-76
2022/02/01 13:23:04;;;;;;;;;;;26.70;24.40;;;;;;5015764;28;19921;-80
2022/02/01 13:25:50;;;;;;;;;;;24.90;26.30;;;;;;5015205;28;19944;-77
2022/02/01 13:28:16;;;;;;;;;;;24.50;28.40;;;;;;5016176;28;19921;-77
2022/02/01 13:30:44;;;;;;;;;;;23.60;28.60;;;;;;5016248;28;19971;-76
2022/02/01 13:33:29;;;;;;;;;;;22.90;30.00;;;;;;5014783;28;19974;-77
2022/02/01 13:35:55;;;;;;;;;;;24.90;28.20;;;;;;5016503;28;19917;-77
2022/02/01 13:38:24;;;;;;;;;;;26.90;25.70;;;;;;5031158;28;19953;-76
2022/02/01 13:41:11;;;;;;;;;;;27.80;24.80;;;;;;5014640;28;19921;-80
2022/02/01 13:43:46;;;;;;;;;;;27.40;24.00;;;;;;5015543;28;20076;-76
2022/02/01 13:46:44;;;;;;;;;;;27.20;24.40;;;;;;5005786;28;19946;-81
2022/02/01 13:49:10;;;;;;;;;;;26.80;25.00;;;;;;5032781;28;20029;-76
2022/02/01 13:51:51;;;;;;;;;;;24.40;27.20;;;;;;5019734;28;19929;-81
2022/02/01 13:54:18;;;;;;;;;;;22.30;29.50;;;;;;5014396;28;19996;-76
2022/02/01 13:56:51;;;;;;;;;;;20.80;31.00;;;;;;5014936;28;20326;-81
2022/02/01 13:59:22;;;;;;;;;;;19.80;32.30;;;;;;5014478;28;19921;-80
2022/02/01 14:01:59;;;;;;;;;;;19.00;33.20;;;;;;5014420;28;19922;-77
2022/02/01 14:04:31;;;;;;;;;;;18.40;33.70;;;;;;4999047;28;20602;-76
2022/02/01 14:07:31;;;;;;;;;;;18.80;33.30;;;;;;5015262;28;19921;-77
2022/02/01 14:10:10;;;;;;;;;;;19.30;32.20;;;;;;5019235;28;19925;-80
2022/02/01 14:36:16;;;;;;;;;;;14.20;36.10;;;;;;5014178;28;19971;-76
2022/02/01 14:46:34;;;;;;;;;;;14.40;34.70;;;;;;5013695;28;20326;-80
2022/02/01 14:48:59;;;;;;;;;;;15.50;33.80;;;;;;5017109;28;19928;-76
2022/02/01 14:51:25;;;;;;;;;;;16.50;32.30;;;;;;5013287;28;19917;-76
2022/02/01 14:53:52;;;;;;;;;;;16.80;31.50;;;;;;5042631;28;20394;-81
2022/02/01 14:56:26;;;;;;;;;;;16.20;31.40;;;;;;5013115;28;19925;-77
2022/02/01 15:07:23;;;;;;;;;;;13.60;34.70;;;;;;5014522;28;19929;-79
2022/02/01 15:12:48;;;;;;;;;;;13.10;36.00;;;;;;5029628;28;19975;-78
2022/02/01 15:15:15;;;;;;;;;;;12.70;36.30;;;;;;5013241;28;19922;-79
2022/02/01 15:17:42;;;;;;;;;;;12.50;36.60;;;;;;5029156;28;20012;-77
2022/02/01 15:20:10;;;;;;;;;;;12.30;36.80;;;;;;5029382;28;19917;-80
2022/02/01 15:22:36;;;;;;;;;;;12.20;36.90;;;;;;5028816;28;20270;-77
2022/02/01 15:25:03;;;;;;;;;;;12.00;37.10;;;;;;5029128;28;20370;-76
2022/02/01 15:27:28;;;;;;;;;;;11.80;37.20;;;;;;5013719;28;20719;-80
2022/02/01 15:29:55;;;;;;;;;;;11.50;37.90;;;;;;5013227;28;20319;-77
2022/02/01 15:32:21;;;;;;;;;;;11.30;37.70;;;;;;5013671;28;19917;-76
2022/02/01 15:34:47;;;;;;;;;;;11.10;37.90;;;;;;5009698;28;20630;-77
2022/02/01 15:37:13;;;;;;;;;;;10.90;38.50;;;;;;5028707;28;19918;-77
2022/02/01 15:56:46;;;;;;;;;;;9.20;40.90;;;;;;5013571;28;20010;-76
2022/02/01 15:59:03;;;;;;;;;;;9.00;41.00;;;;;;5029296;28;19930;-80
2022/02/01 16:04:17;;;;;;;;;;;8.30;42.50;;;;;;5011905;28;20388;-81
2022/02/01 16:06:49;;;;;;;;;;;7.90;43.70;;;;;;4997290;28;20345;-77
2022/02/01 16:09:22;;;;;;;;;;;7.60;44.60;;;;;;5027367;28;20406;-76
2022/02/01 16:11:48;;;;;;;;;;;7.50;44.80;;;;;;5025457;28;19916;-76
2022/02/01 16:14:14;;;;;;;;;;;7.30;44.00;;;;;;5014549;28;19944;-76
2022/02/01 16:16:41;;;;;;;;;;;7.30;44.40;;;;;;5009570;28;19960;-79
2022/02/01 16:19:07;;;;;;;;;;;7.20;44.10;;;;;;5014867;28;19928;-76
2022/02/01 16:21:34;;;;;;;;;;;7.00;44.70;;;;;;5025778;28;19929;-80
2022/02/01 16:24:00;;;;;;;;;;;6.90;44.90;;;;;;5012642;28;19921;-77
2022/02/01 16:26:27;;;;;;;;;;;6.80;44.90;;;;;;4998146;28;19920;-79
2022/02/01 16:28:55;;;;;;;;;;;6.80;45.00;;;;;;5009506;28;20298;-77
2022/02/01 16:31:22;;;;;;;;;;;6.70;45.00;;;;;;5015191;28;20028;-80
2022/02/01 16:33:48;;;;;;;;;;;6.70;45.20;;;;;;5005732;28;19929;-80
2022/02/01 16:36:33;;;;;;;;;;;6.60;45.10;;;;;;5014696;28;19920;-77
2022/02/01 16:39:02;;;;;;;;;;;6.50;45.40;;;;;;5023045;28;19924;-80
2022/02/01 16:41:28;;;;;;;;;;;6.40;45.80;;;;;;5011779;28;20306;-76
2022/02/01 16:43:55;;;;;;;;;;;6.30;46.00;;;;;;5017264;28;19967;-77
2022/02/01 16:46:22;;;;;;;;;;;6.10;45.60;;;;;;5008227;28;19921;-80
2022/02/01 16:48:49;;;;;;;;;;;6.10;46.30;;;;;;5018685;28;19922;-79
2022/02/01 16:51:15;;;;;;;;;;;5.90;47.00;;;;;;5015931;28;19917;-80
2022/02/01 16:53:45;;;;;;;;;;;5.80;47.80;;;;;;5020350;28;19921;-81
2022/02/01 16:59:07;;;;;;;;;;;5.50;47.50;;;;;;5020271;28;20389;-77
2022/02/01 17:01:33;;;;;;;;;;;5.40;48.40;;;;;;5016625;28;19987;-80
2022/02/01 17:03:58;;;;;;;;;;;5.30;48.60;;;;;;5003132;28;19929;-79
2022/02/01 17:06:24;;;;;;;;;;;5.30;48.50;;;;;;5020198;28;19960;-76
2022/02/01 17:08:50;;;;;;;;;;;5.20;48.90;;;;;;5043952;28;20024;-80
2022/02/01 17:19:11;;;;;;;;;;;4.90;49.20;;;;;;5018409;28;20382;-80
2022/02/01 17:21:39;;;;;;;;;;;4.80;48.80;;;;;;5033269;28;19921;-80
2022/02/01 17:24:07;;;;;;;;;;;4.60;50.40;;;;;;4999940;28;20011;-76
2022/02/01 17:26:33;;;;;;;;;;;4.50;50.90;;;;;;5041315;28;19975;-77
2022/02/01 17:29:00;;;;;;;;;;;4.40;51.20;;;;;;5015056;28;19921;-80
2022/02/01 17:31:26;;;;;;;;;;;4.20;52.40;;;;;;5028082;28;19927;-76
2022/02/01 17:33:52;;;;;;;;;;;4.10;52.70;;;;;;5028574;28;20389;-77
2022/02/01 17:36:18;;;;;;;;;;;4.10;52.70;;;;;;5013871;28;20388;-78
2022/02/01 17:38:45;;;;;;;;;;;4.00;51.60;;;;;;5016367;28;19925;-76
2022/02/01 17:41:12;;;;;;;;;;;4.00;51.60;;;;;;5032516;28;19970;-76
2022/02/01 17:43:40;;;;;;;;;;;4.10;51.40;;;;;;5013622;28;20366;-80
2022/02/01 17:46:06;;;;;;;;;;;4.00;51.20;;;;;;5029071;28;19921;-77
2022/02/01 17:48:35;;;;;;;;;;;4.00;51.10;;;;;;5014587;28;20623;-77
2022/02/01 17:51:09;;;;;;;;;;;4.00;50.60;;;;;;5014928;28;19988;-81
2022/02/01 17:53:42;;;;;;;;;;;4.00;51.10;;;;;;5014514;28;19921;-77